createdAt,value
2018-09-24T00:02:26.687Z,100973.69
2018-09-24T00:05:01.852Z,100986.94
2018-09-24T00:07:37.642Z,100995.84
2018-09-24T00:10:12.460Z,100997.08
2018-09-24T00:12:48.985Z,100996.64
2018-09-24T00:15:24.323Z,101006.94
2018-09-24T00:17:58.836Z,101008.24
2018-09-24T00:20:33.680Z,101001.89
2018-09-24T00:23:08.353Z,101007.44
2018-09-24T00:25:43.528Z,101006.94
2018-09-24T00:28:19.100Z,101016.45
2018-09-24T00:30:53.937Z,101035.56
2018-09-24T00:33:28.981Z,101035.62
2018-09-24T00:36:04.036Z,101037.71
2018-09-24T00:38:40.128Z,101042.31
2018-09-24T00:41:15.759Z,101052.50
2018-09-24T00:43:50.574Z,101046.95
2018-09-24T00:46:25.514Z,101061.03
2018-09-24T00:49:01.204Z,101069.16
2018-09-24T00:51:36.153Z,101072.93
2018-09-24T00:54:11.247Z,101075.05
2018-09-24T00:56:46.116Z,101081.09
2018-09-24T00:59:21.156Z,101078.47
2018-09-24T01:01:56.036Z,101079.28
2018-09-24T01:04:30.760Z,101075.52
2018-09-24T01:07:06.792Z,101072.53
2018-09-24T01:09:42.107Z,101084.83
2018-09-24T01:12:17.340Z,101084.39
2018-09-24T01:14:53.021Z,101094.64
2018-09-24T01:17:28.333Z,101095.55
2018-09-24T01:20:03.672Z,101089.59
2018-09-24T01:22:38.585Z,101098.63
2018-09-24T01:25:16.006Z,101100.74
2018-09-24T01:27:52.175Z,101099.88
2018-09-24T01:30:28.101Z,101090.53
2018-09-24T01:33:04.970Z,101092.27
2018-09-24T01:35:39.668Z,101108.95
2018-09-24T01:38:14.383Z,101108.11
2018-09-24T01:40:49.087Z,101116.23
2018-09-24T01:43:24.224Z,101117.48
2018-09-24T01:46:01.071Z,101120.42
2018-09-24T01:48:37.290Z,101122.99
2018-09-24T01:51:12.204Z,101126.44
2018-09-24T01:53:48.222Z,101131.55
2018-09-24T01:56:23.251Z,101139.20
2018-09-24T01:58:58.850Z,101149.49
2018-09-24T02:01:33.776Z,101153.72
2018-09-24T02:04:08.597Z,101150.36
2018-09-24T02:06:43.471Z,101150.81
2018-09-24T02:09:18.165Z,101164.44
2018-09-24T02:11:52.957Z,101175.93
2018-09-24T02:14:29.032Z,101173.38
2018-09-24T02:17:04.466Z,101176.39
2018-09-24T02:19:39.224Z,101187.41
2018-09-24T02:22:15.073Z,101195.06
2018-09-24T02:24:50.895Z,101196.34
2018-09-24T02:27:25.916Z,101221.41
2018-09-24T02:30:00.491Z,101226.06
2018-09-24T02:32:35.179Z,101230.76
2018-09-24T02:35:10.472Z,101212.82
2018-09-24T02:37:46.102Z,101219.23
2018-09-24T02:40:23.140Z,101214.56
2018-09-24T02:42:57.989Z,101218.38
2018-09-24T02:45:34.306Z,101221.36
2018-09-24T02:48:10.347Z,101235.43
2018-09-24T02:50:45.269Z,101277.55
2018-09-24T02:53:21.575Z,101273.75
2018-09-24T02:55:56.543Z,101269.64
2018-09-24T02:58:31.427Z,101259.80
2018-09-24T03:01:06.104Z,101256.81
2018-09-24T03:03:41.411Z,101268.76
2018-09-24T03:06:16.686Z,101290.95
2018-09-24T03:08:51.567Z,101278.56
2018-09-24T03:11:27.977Z,101271.77
2018-09-24T03:14:04.349Z,101277.27
2018-09-24T03:16:39.283Z,101274.73
2018-09-24T03:19:14.183Z,101273.02
2018-09-24T03:21:49.519Z,101281.94
2018-09-24T03:24:25.440Z,101300.23
2018-09-24T03:27:00.549Z,101322.31
2018-09-24T03:29:34.869Z,101328.30
2018-09-24T03:32:09.541Z,101318.94
2018-09-24T03:34:45.148Z,101309.61
2018-09-24T03:37:21.223Z,101308.39
2018-09-24T03:39:56.193Z,101285.45
2018-09-24T03:42:31.926Z,101302.02
2018-09-24T03:45:07.095Z,101312.20
2018-09-24T03:47:42.336Z,101314.34
2018-09-24T03:50:17.072Z,101333.48
2018-09-24T03:52:51.938Z,101340.75
2018-09-24T03:55:28.013Z,101339.44
2018-09-24T03:58:02.546Z,101351.81
2018-09-24T04:00:37.327Z,101343.72
2018-09-24T04:03:12.188Z,101337.73
2018-09-24T04:05:52.448Z,101340.69
2018-09-24T04:08:32.165Z,101338.19
2018-09-24T04:11:11.865Z,101358.12
2018-09-24T04:13:51.933Z,101368.73
2018-09-24T04:16:31.643Z,101385.30
2018-09-24T04:19:11.386Z,101415.09
2018-09-24T04:21:51.266Z,101415.15
2018-09-24T04:24:32.066Z,101400.63
2018-09-24T04:27:11.857Z,101395.53
2018-09-24T04:29:51.645Z,101391.72
2018-09-24T04:32:31.459Z,101386.59
2018-09-24T04:35:11.485Z,101384.89
2018-09-24T04:37:51.067Z,101391.25
2018-09-24T04:40:30.562Z,101388.27
2018-09-24T04:43:10.221Z,101385.31
2018-09-24T04:45:50.359Z,101384.44
2018-09-24T04:48:29.986Z,101383.22
2018-09-24T04:51:09.615Z,101390.00
2018-09-24T04:53:50.223Z,101389.55
2018-09-24T04:56:29.880Z,101398.92
2018-09-24T04:59:09.442Z,101405.30
2018-09-24T05:01:49.131Z,101413.81
2018-09-24T05:04:30.632Z,101415.09
2018-09-24T05:07:10.274Z,101421.05
2018-09-24T05:09:50.237Z,101416.36
2018-09-24T05:12:30.953Z,101427.01
2018-09-24T05:15:10.671Z,101439.36
2018-09-24T05:17:50.413Z,101448.28
2018-09-24T05:20:30.672Z,101456.78
2018-09-24T05:23:10.196Z,101467.00
2018-09-24T05:25:49.940Z,101478.05
2018-09-24T05:28:30.018Z,101489.95
2018-09-24T05:31:09.767Z,101475.93
2018-09-24T05:33:49.997Z,101479.73
2018-09-24T05:36:29.726Z,101486.94
2018-09-24T05:39:09.644Z,101499.72
2018-09-24T05:41:49.870Z,101517.14
2018-09-24T05:44:29.482Z,101526.09
2018-09-24T05:47:09.208Z,101530.31
2018-09-24T05:49:48.934Z,101512.88
2018-09-24T05:52:28.423Z,101515.43
2018-09-24T05:55:08.154Z,101515.02
2018-09-24T05:57:48.606Z,101526.89
2018-09-24T06:00:28.494Z,101498.84
2018-09-24T06:03:08.223Z,101485.62
2018-09-24T06:05:52.211Z,101499.62
2018-09-24T06:08:31.617Z,101514.52
2018-09-24T06:11:11.361Z,101528.11
2018-09-24T06:13:51.611Z,101530.68
2018-09-24T06:16:32.492Z,101540.47
2018-09-24T06:19:12.390Z,101518.78
2018-09-24T06:21:52.094Z,101518.33
2018-09-24T06:24:32.659Z,101511.93
2018-09-24T06:27:12.766Z,101521.72
2018-09-24T06:29:52.576Z,101533.62
2018-09-24T06:32:32.316Z,101538.27
2018-09-24T06:35:12.183Z,101533.98
2018-09-24T06:37:51.992Z,101545.05
2018-09-24T06:40:31.677Z,101537.78
2018-09-24T06:43:12.119Z,101532.22
2018-09-24T06:45:51.636Z,101552.66
2018-09-24T06:48:31.434Z,101558.55
2018-09-24T06:51:11.123Z,101559.39
2018-09-24T06:53:51.896Z,101569.63
2018-09-24T06:56:31.526Z,101585.81
2018-09-24T06:59:11.643Z,101603.79
2018-09-24T07:01:52.257Z,101615.23
2018-09-24T07:04:31.756Z,101624.61
2018-09-24T07:07:12.071Z,101636.91
2018-09-24T07:09:52.090Z,101636.05
2018-09-24T07:12:32.254Z,101639.39
2018-09-24T07:15:11.815Z,101644.88
2018-09-24T07:17:51.521Z,101644.41
2018-09-24T07:20:31.447Z,101644.36
2018-09-24T07:23:11.241Z,101653.61
2018-09-24T07:25:52.035Z,101665.15
2018-09-24T07:28:31.905Z,101663.42
2018-09-24T07:31:11.717Z,101665.59
2018-09-24T07:33:51.534Z,101672.42
2018-09-24T07:36:31.236Z,101680.98
2018-09-24T07:39:14.708Z,101683.92
2018-09-24T07:41:54.514Z,101677.46
2018-09-24T07:44:34.484Z,101681.61
2018-09-24T07:47:14.620Z,101680.34
2018-09-24T07:49:55.257Z,101682.89
2018-09-24T07:52:35.308Z,101673.80
2018-09-24T07:55:15.723Z,101683.48
2018-09-24T07:57:55.554Z,101691.42
2018-09-24T08:00:37.260Z,101699.05
2018-09-24T08:03:17.092Z,101707.07
2018-09-24T08:05:57.623Z,101720.98
2018-09-24T08:08:38.072Z,101735.20
2018-09-24T08:11:17.694Z,101735.86
2018-09-24T08:13:57.598Z,101757.66
2018-09-24T08:16:38.413Z,101745.45
2018-09-24T08:19:19.097Z,101747.89
2018-09-24T08:21:58.763Z,101744.95
2018-09-24T08:24:38.377Z,101742.49
2018-09-24T08:27:18.062Z,101750.27
2018-09-24T08:29:57.988Z,101753.73
2018-09-24T08:32:38.795Z,101749.52
2018-09-24T08:35:18.608Z,101764.85
2018-09-24T08:37:58.080Z,101766.58
2018-09-24T08:40:38.182Z,101773.84
2018-09-24T08:43:18.947Z,101766.98
2018-09-24T08:45:58.617Z,101778.03
2018-09-24T08:48:38.943Z,101781.36
2018-09-24T08:51:18.609Z,101790.72
2018-09-24T08:53:58.385Z,101783.88
2018-09-24T08:56:37.819Z,101780.37
2018-09-24T08:59:17.768Z,101786.14
2018-09-24T09:01:57.265Z,101784.23
2018-09-24T09:04:37.451Z,101794.27
2018-09-24T09:07:17.148Z,101795.53
2018-09-24T09:09:56.883Z,101803.80
2018-09-24T09:12:36.648Z,101818.74
2018-09-24T09:15:16.398Z,101828.84
2018-09-24T09:17:56.226Z,101843.66
2018-09-24T09:20:35.891Z,101844.45
2018-09-24T09:23:15.523Z,101842.59
2018-09-24T09:25:55.275Z,101842.88
2018-09-24T09:28:35.235Z,101846.10
2018-09-24T09:31:15.297Z,101844.31
2018-09-24T09:33:55.743Z,101846.03
2018-09-24T09:36:36.113Z,101856.07
2018-09-24T09:39:16.065Z,101859.93
2018-09-24T09:41:56.155Z,101854.95
2018-09-24T09:44:35.896Z,101852.06
2018-09-24T09:47:15.481Z,101853.02
2018-09-24T09:49:55.120Z,101854.80
2018-09-24T09:52:35.791Z,101850.25
2018-09-24T09:55:15.555Z,101859.79
2018-09-24T09:57:55.933Z,101864.86
2018-09-24T10:00:35.485Z,101859.64
2018-09-24T10:03:16.000Z,101855.59
2018-09-24T10:05:55.707Z,101863.09
2018-09-24T10:08:35.480Z,101863.42
2018-09-24T10:11:15.105Z,101867.61
2018-09-24T10:13:55.144Z,101876.47
2018-09-24T10:16:35.030Z,101881.69
2018-09-24T10:19:14.875Z,101885.09
2018-09-24T10:21:55.520Z,101890.86
2018-09-24T10:24:36.712Z,101900.22
2018-09-24T10:27:16.976Z,101906.53
2018-09-24T10:29:56.698Z,101900.34
2018-09-24T10:32:36.714Z,101902.66
2018-09-24T10:35:16.676Z,101915.19
2018-09-24T10:37:56.595Z,101897.58
2018-09-24T10:40:36.226Z,101918.56
2018-09-24T10:43:15.880Z,101925.84
2018-09-24T10:45:56.140Z,101924.97
2018-09-24T10:48:36.092Z,101926.84
2018-09-24T10:51:15.944Z,101924.33
2018-09-24T10:53:55.441Z,101933.19
2018-09-24T10:56:35.357Z,101927.15
2018-09-24T10:59:15.065Z,101922.89
2018-09-24T11:01:54.983Z,101916.41
2018-09-24T11:04:34.620Z,101918.16
2018-09-24T11:16:40.165Z,101928.76
2018-09-24T11:19:20.053Z,101933.34
2018-09-24T11:22:00.728Z,101941.30
2018-09-24T11:24:40.986Z,101947.52
2018-09-24T11:27:21.083Z,101960.41
2018-09-24T11:30:00.958Z,101946.85
2018-09-24T11:32:40.875Z,101927.34
2018-09-24T11:35:20.409Z,101945.09
2018-09-24T11:37:59.821Z,101949.70
2018-09-24T11:40:39.610Z,101940.05
2018-09-24T11:43:19.572Z,101942.11
2018-09-24T11:46:00.952Z,101933.86
2018-09-24T11:48:40.567Z,101938.92
2018-09-24T11:51:20.349Z,101936.31
2018-09-24T11:53:59.998Z,101941.14
2018-09-24T11:56:39.768Z,101939.61
2018-09-24T11:59:19.381Z,101935.30
2018-09-24T12:01:59.537Z,101934.83
2018-09-24T12:04:39.218Z,101933.21
2018-09-24T12:07:18.973Z,101926.24
2018-09-24T12:09:58.518Z,101938.65
2018-09-24T12:12:38.367Z,101933.37
2018-09-24T12:15:17.806Z,101933.84
2018-09-24T12:17:57.640Z,101932.17
2018-09-24T12:20:37.517Z,101936.15
2018-09-24T12:23:17.769Z,101936.41
2018-09-24T12:25:58.335Z,101938.37
2018-09-24T12:28:39.187Z,101950.41
2018-09-24T12:31:18.829Z,101962.41
2018-09-24T12:33:59.515Z,101956.23
2018-09-24T12:36:39.972Z,101954.73
2018-09-24T12:39:19.846Z,101952.17
2018-09-24T12:41:59.857Z,101958.02
2018-09-24T12:44:39.646Z,101965.39
2018-09-24T12:47:19.392Z,101950.98
2018-09-24T12:49:59.142Z,101947.94
2018-09-24T12:52:38.861Z,101950.58
2018-09-24T12:55:18.831Z,101960.53
2018-09-24T12:57:58.681Z,101944.97
2018-09-24T13:00:38.280Z,101948.95
2018-09-24T13:03:17.792Z,101951.60
2018-09-24T13:05:56.958Z,101949.53
2018-09-24T13:08:36.215Z,101943.58
2018-09-24T13:11:15.642Z,101950.02
2018-09-24T13:13:54.729Z,101943.23
2018-09-24T13:16:34.053Z,101947.56
2018-09-24T13:19:13.533Z,101946.67
2018-09-24T13:21:52.598Z,101960.31
2018-09-24T13:24:31.999Z,101960.42
2018-09-24T13:27:11.305Z,101947.65
2018-09-24T13:29:50.438Z,101959.17
2018-09-24T13:32:29.639Z,101968.13
2018-09-24T13:35:11.309Z,101966.38
2018-09-24T13:37:50.536Z,101971.05
2018-09-24T13:40:30.552Z,101978.26
2018-09-24T13:43:09.785Z,101980.75
2018-09-24T13:45:49.023Z,101989.70
2018-09-24T13:48:29.172Z,101996.36
2018-09-24T13:51:09.466Z,101987.48
2018-09-24T13:53:48.597Z,101990.96
2018-09-24T13:56:27.557Z,101986.34
2018-09-24T13:59:07.110Z,101989.84
2018-09-24T14:01:46.434Z,101991.12
2018-09-24T14:04:25.388Z,101996.25
2018-09-24T14:07:04.500Z,101996.23
2018-09-24T14:09:43.348Z,101994.55
2018-09-24T14:12:22.897Z,102003.10
2018-09-24T14:15:01.948Z,101998.90
2018-09-24T14:17:40.987Z,102017.84
2018-09-24T14:20:21.042Z,102015.33
2018-09-24T14:23:00.519Z,102017.92
2018-09-24T14:25:39.711Z,102017.94
2018-09-24T14:28:18.805Z,102011.16
2018-09-24T14:30:58.077Z,102004.83
2018-09-24T14:33:37.099Z,102001.38
2018-09-24T14:36:16.760Z,102010.45
2018-09-24T14:38:56.099Z,102011.70
2018-09-24T14:41:35.625Z,102009.12
2018-09-24T14:44:15.083Z,102014.29
2018-09-24T14:46:54.199Z,102019.02
2018-09-24T14:49:33.319Z,102017.31
2018-09-24T14:52:13.416Z,102026.69
2018-09-24T14:54:52.949Z,102034.80
2018-09-24T14:57:32.725Z,102017.79
2018-09-24T15:00:13.343Z,102029.72
2018-09-24T15:02:52.874Z,102026.33
2018-09-24T15:05:32.083Z,102031.84
2018-09-24T15:08:11.737Z,102030.13
2018-09-24T15:10:51.550Z,102036.98
2018-09-24T15:13:30.891Z,102028.88
2018-09-24T15:16:10.773Z,102030.61
2018-09-24T15:18:50.428Z,102029.34
2018-09-24T15:21:30.355Z,102020.41
2018-09-24T15:24:09.330Z,102030.63
2018-09-24T15:26:48.430Z,102041.34
2018-09-24T15:29:28.107Z,102039.65
2018-09-24T15:32:07.833Z,102040.95
2018-09-24T15:34:48.070Z,102045.65
2018-09-24T15:37:28.284Z,102043.52
2018-09-24T15:40:07.552Z,102045.66
2018-09-24T15:42:46.831Z,102049.08
2018-09-24T15:45:26.008Z,102045.19
2018-09-24T15:48:05.187Z,102044.77
2018-09-24T15:50:44.355Z,102039.21
2018-09-24T15:53:23.469Z,102051.15
2018-09-24T15:56:02.369Z,102051.19
2018-09-24T15:58:41.452Z,102052.89
2018-09-24T16:01:20.701Z,102052.47
2018-09-24T16:04:00.548Z,102051.61
2018-09-24T16:06:39.815Z,102055.93
2018-09-24T16:09:19.069Z,102055.88
2018-09-24T16:11:59.469Z,102058.02
2018-09-24T16:14:38.455Z,102057.20
2018-09-24T16:17:17.774Z,102058.44
2018-09-24T16:19:56.792Z,102067.43
2018-09-24T16:22:36.253Z,102073.42
2018-09-24T16:25:15.494Z,102070.86
2018-09-24T16:27:54.870Z,102072.16
2018-09-24T16:30:34.197Z,102074.76
2018-09-24T16:33:14.158Z,102080.31
2018-09-24T16:35:53.607Z,102085.86
2018-09-24T16:38:33.545Z,102089.70
2018-09-24T16:41:13.730Z,102089.73
2018-09-24T16:43:53.100Z,102090.61
2018-09-24T16:46:32.875Z,102099.59
2018-09-24T16:49:13.047Z,102103.41
2018-09-24T16:51:53.596Z,102101.27
2018-09-24T16:54:33.086Z,102102.16
2018-09-24T16:57:12.816Z,102108.13
2018-09-24T16:59:52.181Z,102109.41
2018-09-24T17:02:31.090Z,102108.58
2018-09-24T17:05:10.964Z,102121.37
2018-09-24T17:07:50.226Z,102119.22
2018-09-24T17:10:30.135Z,102113.25
2018-09-24T17:13:09.064Z,102119.21
2018-09-24T17:15:48.089Z,102120.91
2018-09-24T17:18:27.252Z,102123.05
2018-09-24T17:21:06.480Z,102132.42
2018-09-24T17:23:45.998Z,102136.25
2018-09-24T17:26:24.988Z,102137.53
2018-09-24T17:29:04.394Z,102147.34
2018-09-24T17:31:43.741Z,102144.35
2018-09-24T17:34:22.931Z,102152.45
2018-09-24T17:37:01.926Z,102149.88
2018-09-24T17:39:41.111Z,102157.99
2018-09-24T17:42:21.619Z,102156.25
2018-09-24T17:45:02.623Z,102155.39
2018-09-24T17:47:41.790Z,102156.66
2018-09-24T17:50:22.340Z,102168.14
2018-09-24T17:53:02.219Z,102164.30
2018-09-24T17:55:41.506Z,102163.86
2018-09-24T17:58:20.432Z,102169.39
2018-09-24T18:00:59.733Z,102177.47
2018-09-24T18:03:38.892Z,102173.62
2018-09-24T18:06:17.959Z,102180.00
2018-09-24T18:08:57.281Z,102182.55
2018-09-24T18:11:36.783Z,102191.05
2018-09-24T18:14:15.942Z,102187.19
2018-09-24T18:16:55.442Z,102183.34
2018-09-24T18:19:35.563Z,102182.87
2018-09-24T18:22:15.180Z,102187.94
2018-09-24T18:24:54.446Z,102198.99
2018-09-24T18:27:33.800Z,102201.11
2018-09-24T18:30:13.197Z,102211.30
2018-09-24T18:32:52.447Z,102218.06
2018-09-24T18:35:31.624Z,102223.12
2018-09-24T18:38:10.873Z,102222.25
2018-09-24T18:40:49.944Z,102234.97
2018-09-24T18:43:29.056Z,102237.00
2018-09-24T18:46:08.266Z,102239.09
2018-09-24T18:48:47.587Z,102244.59
2018-09-24T18:51:26.904Z,102251.34
2018-09-24T18:54:05.939Z,102249.97
2018-09-24T18:56:45.064Z,102258.91
2018-09-24T18:59:24.328Z,102262.28
2018-09-24T19:02:03.515Z,102264.44
2018-09-24T19:04:42.878Z,102265.28
2018-09-24T19:07:22.064Z,102265.28
2018-09-24T19:10:01.446Z,102258.52
2018-09-24T19:12:40.698Z,102267.73
2018-09-24T19:15:19.928Z,102264.80
2018-09-24T19:17:58.949Z,102266.03
2018-09-24T19:20:38.004Z,102268.55
2018-09-24T19:23:17.193Z,102274.89
2018-09-24T19:25:56.300Z,102281.66
2018-09-24T19:28:35.886Z,102276.09
2018-09-24T19:31:15.098Z,102287.45
2018-09-24T19:33:54.174Z,102295.06
2018-09-24T19:36:33.177Z,102292.94
2018-09-24T19:39:14.102Z,102294.17
2018-09-24T19:41:53.163Z,102299.20
2018-09-24T19:44:32.310Z,102300.72
2018-09-24T19:47:11.819Z,102303.78
2018-09-24T19:49:50.797Z,102304.24
2018-09-24T19:52:30.931Z,102312.66
2018-09-24T19:55:09.840Z,102308.06
2018-09-24T19:57:49.145Z,102311.44
2018-09-24T20:00:28.418Z,102310.58
2018-09-24T20:03:07.851Z,102316.48
2018-09-24T20:05:46.860Z,102322.90
2018-09-24T20:08:26.559Z,102320.27
2018-09-24T20:11:05.693Z,102323.99
2018-09-24T20:13:45.224Z,102328.62
2018-09-24T20:16:24.568Z,102331.13
2018-09-24T20:19:03.701Z,102331.92
2018-09-24T20:21:43.033Z,102332.34
2018-09-24T20:24:21.985Z,102336.08
2018-09-24T20:27:00.906Z,102336.59
2018-09-24T20:29:40.419Z,102345.45
2018-09-24T20:32:19.799Z,102337.30
2018-09-24T20:34:59.134Z,102342.34
2018-09-24T20:37:38.232Z,102344.56
2018-09-24T20:40:17.413Z,102350.03
2018-09-24T20:42:56.527Z,102362.09
2018-09-24T20:45:35.677Z,102369.24
2018-09-24T20:48:15.057Z,102371.36
2018-09-24T20:50:54.348Z,102381.09
2018-09-24T20:53:33.647Z,102380.13
2018-09-24T20:56:12.999Z,102384.06
2018-09-24T20:58:52.154Z,102389.09
2018-09-24T21:01:31.764Z,102392.86
2018-09-24T21:04:11.471Z,102399.34
2018-09-24T21:06:53.672Z,102401.40
2018-09-24T21:09:33.482Z,102407.36
2018-09-24T21:12:13.522Z,102409.75
2018-09-24T21:14:53.202Z,102416.86
2018-09-24T21:17:33.604Z,102417.24
2018-09-24T21:20:13.949Z,102415.47
2018-09-24T21:22:53.832Z,102422.61
2018-09-24T21:25:34.274Z,102427.59
2018-09-24T21:28:14.421Z,102430.00
2018-09-24T21:30:55.215Z,102434.25
2018-09-24T21:33:35.373Z,102438.03
2018-09-24T21:36:15.208Z,102449.09
2018-09-24T21:38:55.736Z,102448.95
2018-09-24T21:41:35.831Z,102456.20
2018-09-24T21:44:16.424Z,102459.55
2018-09-24T21:46:56.465Z,102456.55
2018-09-24T21:49:37.541Z,102452.67
2018-09-24T21:52:17.512Z,102453.89
2018-09-24T21:54:58.527Z,102455.16
2018-09-24T21:57:38.023Z,102463.61
2018-09-24T22:00:19.858Z,102463.63
2018-09-24T22:02:59.910Z,102463.94
2018-09-24T22:05:39.616Z,102468.59
2018-09-24T22:08:19.348Z,102469.02
2018-09-24T22:10:58.295Z,102473.75
2018-09-24T22:13:37.129Z,102468.06
2018-09-24T22:16:15.958Z,102474.92
2018-09-24T22:18:54.825Z,102477.82
2018-09-24T22:21:33.687Z,102481.66
2018-09-24T22:24:12.634Z,102493.02
2018-09-24T22:26:51.397Z,102495.51
2018-09-24T22:29:30.169Z,102498.01
2018-09-24T22:32:08.806Z,102496.27
2018-09-24T22:34:47.734Z,102500.02
2018-09-24T22:37:26.636Z,102506.84
2018-09-24T22:40:05.413Z,102507.63
2018-09-24T22:42:44.223Z,102511.95
2018-09-24T22:45:23.131Z,102513.71
2018-09-24T22:48:02.053Z,102509.39
2018-09-24T22:50:40.779Z,102506.38
2018-09-24T22:53:19.719Z,102505.94
2018-09-24T22:55:58.677Z,102518.50
2018-09-24T22:58:48.762Z,102520.19
2018-09-24T23:01:27.553Z,102526.97
2018-09-24T23:04:06.310Z,102528.67
2018-09-24T23:06:45.055Z,102522.73
2018-09-24T23:09:23.792Z,102531.27
2018-09-24T23:12:02.470Z,102532.05
2018-09-24T23:14:41.195Z,102530.27
2018-09-24T23:17:20.145Z,102535.36
2018-09-24T23:19:58.779Z,102523.73
2018-09-24T23:22:37.620Z,102530.09
2018-09-24T23:25:16.331Z,102525.03
2018-09-24T23:27:55.148Z,102527.14
2018-09-24T23:30:33.987Z,102530.89
2018-09-24T23:33:12.921Z,102530.95
2018-09-24T23:35:51.702Z,102528.77
2018-09-24T23:38:30.668Z,102530.77
2018-09-24T23:41:09.574Z,102524.87
2018-09-24T23:43:48.247Z,102530.72
2018-09-24T23:46:27.276Z,102527.66
2018-09-24T23:49:05.918Z,102533.52
2018-09-24T23:51:44.823Z,102532.25
2018-09-24T23:54:23.595Z,102528.69
2018-09-24T23:57:02.368Z,102539.70
2018-09-24T23:59:41.043Z,102539.53
